createdAt,value
2023-11-30T00:01:28.079Z,10.52
2023-11-30T00:03:54.811Z,11.48
2023-11-30T00:06:21.534Z,9.77
2023-11-30T00:08:48.426Z,10.50
2023-11-30T00:11:15.268Z,10.55
2023-11-30T00:13:41.840Z,11.77
2023-11-30T00:16:08.726Z,11.77
2023-11-30T00:18:35.357Z,11.27
2023-11-30T00:21:07.493Z,13.02
2023-11-30T00:26:03.578Z,10.85
2023-11-30T00:28:30.454Z,10.75
2023-11-30T00:30:59.439Z,9.93
2023-11-30T00:33:26.142Z,11.68
2023-11-30T00:35:53.069Z,13.07
2023-11-30T00:38:19.667Z,13.48
2023-11-30T00:40:46.290Z,14.52
2023-11-30T00:43:12.908Z,11.30
2023-11-30T00:45:43.680Z,12.25
2023-11-30T00:48:10.676Z,12.75
2023-11-30T00:50:38.701Z,12.35
2023-11-30T00:53:05.337Z,11.75
2023-11-30T00:55:32.473Z,15.13
2023-11-30T00:57:59.024Z,14.90
2023-11-30T01:00:25.859Z,12.30
2023-11-30T01:02:52.860Z,13.82
2023-11-30T01:05:19.728Z,13.10
2023-11-30T01:07:46.340Z,12.50
2023-11-30T01:10:12.981Z,15.90
2023-11-30T01:12:39.660Z,13.60
2023-11-30T01:15:08.373Z,14.55
2023-11-30T01:17:35.093Z,12.48
2023-11-30T01:20:02.013Z,12.23
2023-11-30T01:22:28.787Z,13.10
2023-11-30T01:24:56.063Z,14.70
2023-11-30T01:27:22.695Z,15.32
2023-11-30T01:29:49.273Z,16.23
2023-11-30T01:32:15.885Z,14.57
2023-11-30T01:34:42.442Z,13.15
2023-11-30T01:37:09.299Z,16.13
2023-11-30T01:39:35.885Z,14.10
2023-11-30T01:42:05.794Z,14.05
2023-11-30T01:44:32.670Z,15.20
2023-11-30T01:47:01.899Z,14.52
2023-11-30T01:49:28.673Z,17.10
2023-11-30T01:52:02.939Z,21.60
2023-11-30T01:54:29.741Z,14.57
2023-11-30T01:56:56.824Z,13.85
2023-11-30T01:59:23.457Z,14.52
2023-11-30T02:01:50.140Z,13.80
2023-11-30T02:04:18.482Z,15.88
2023-11-30T02:06:46.580Z,13.48
2023-11-30T02:09:13.999Z,15.45
2023-11-30T02:11:40.873Z,14.85
2023-11-30T02:14:08.254Z,14.18
2023-11-30T02:16:34.874Z,13.95
2023-11-30T02:19:01.458Z,14.85
2023-11-30T02:21:29.351Z,16.73
2023-11-30T02:23:56.338Z,13.90
2023-11-30T02:26:22.984Z,16.38
2023-11-30T02:28:49.851Z,15.15
2023-11-30T02:31:16.680Z,17.55
2023-11-30T02:33:43.524Z,13.60
2023-11-30T02:36:10.527Z,16.10
2023-11-30T02:38:37.132Z,14.55
2023-11-30T02:41:03.765Z,14.10
2023-11-30T02:43:31.202Z,16.23
2023-11-30T02:45:57.884Z,15.13
2023-11-30T02:48:28.270Z,15.68
2023-11-30T02:50:56.011Z,16.80
2023-11-30T02:53:24.778Z,18.27
2023-11-30T02:55:51.349Z,17.83
2023-11-30T02:58:18.159Z,14.75
2023-11-30T03:00:44.820Z,15.40
2023-11-30T03:03:11.466Z,14.63
2023-11-30T03:05:38.071Z,14.77
2023-11-30T03:08:04.843Z,15.30
2023-11-30T03:10:31.400Z,13.32
2023-11-30T03:12:57.965Z,14.23
2023-11-30T03:15:25.105Z,13.82
2023-11-30T03:17:52.200Z,14.02
2023-11-30T03:20:18.950Z,13.52
2023-11-30T03:22:46.710Z,12.88
2023-11-30T03:25:13.645Z,15.48
2023-11-30T03:27:40.709Z,15.48
2023-11-30T03:30:10.107Z,12.48
2023-11-30T03:32:36.799Z,15.55
2023-11-30T03:35:03.688Z,15.00
2023-11-30T03:37:30.233Z,13.73
2023-11-30T03:39:57.085Z,19.58
2023-11-30T03:42:24.258Z,14.00
2023-11-30T03:44:55.455Z,15.20
2023-11-30T03:47:22.163Z,15.05
2023-11-30T03:49:48.996Z,13.75
2023-11-30T03:52:17.100Z,15.70
2023-11-30T03:54:43.677Z,14.73
2023-11-30T03:57:10.310Z,13.52
2023-11-30T03:59:36.892Z,14.32
2023-11-30T04:02:03.542Z,16.30
2023-11-30T04:04:30.562Z,12.00
2023-11-30T04:06:57.234Z,16.75
2023-11-30T04:09:23.875Z,15.27
2023-11-30T04:11:53.557Z,14.60
2023-11-30T04:14:20.232Z,13.13
2023-11-30T04:16:47.043Z,16.92
2023-11-30T04:19:13.678Z,14.65
2023-11-30T04:21:42.568Z,14.65
2023-11-30T04:24:09.678Z,13.13
2023-11-30T04:26:37.008Z,15.73
2023-11-30T04:29:03.695Z,15.52
2023-11-30T04:31:30.363Z,14.68
2023-11-30T04:33:57.615Z,12.38
2023-11-30T04:36:26.437Z,14.18
2023-11-30T04:38:54.146Z,13.00
2023-11-30T04:41:21.843Z,14.43
2023-11-30T04:43:49.993Z,16.92
2023-11-30T04:46:16.716Z,12.93
2023-11-30T04:48:43.725Z,14.02
2023-11-30T04:51:10.840Z,15.23
2023-11-30T04:53:37.489Z,14.30
2023-11-30T04:56:04.620Z,18.52
2023-11-30T04:58:31.430Z,14.13
2023-11-30T05:00:58.054Z,15.02
2023-11-30T05:03:25.143Z,11.77
2023-11-30T05:05:51.843Z,15.70
2023-11-30T05:08:18.410Z,12.90
2023-11-30T05:10:44.965Z,16.15
2023-11-30T05:13:11.623Z,14.13
2023-11-30T05:15:40.125Z,12.85
2023-11-30T05:18:07.714Z,15.55
2023-11-30T05:20:35.037Z,12.48
2023-11-30T05:23:02.546Z,13.40
2023-11-30T05:25:33.643Z,11.43
2023-11-30T05:28:00.616Z,14.02
2023-11-30T05:30:28.323Z,15.77
2023-11-30T05:32:54.990Z,14.93
2023-11-30T05:35:23.927Z,14.30
2023-11-30T05:37:50.669Z,12.13
2023-11-30T05:40:20.332Z,13.43
2023-11-30T05:42:49.434Z,10.60
2023-11-30T05:45:16.455Z,12.57
2023-11-30T05:47:43.253Z,15.25
2023-11-30T05:50:11.404Z,14.48
2023-11-30T05:52:38.034Z,15.65
2023-11-30T05:55:07.702Z,12.18
2023-11-30T05:57:35.129Z,20.40
2023-11-30T06:00:01.804Z,15.23
2023-11-30T06:02:29.230Z,14.32
2023-11-30T06:04:57.149Z,16.73
2023-11-30T06:07:25.150Z,13.82
2023-11-30T06:09:55.296Z,15.05
2023-11-30T06:12:22.156Z,13.60
2023-11-30T06:14:48.754Z,15.18
2023-11-30T06:17:17.189Z,17.67
2023-11-30T06:19:44.251Z,13.70
2023-11-30T06:22:23.149Z,14.40
2023-11-30T06:24:50.939Z,11.52
2023-11-30T06:27:17.777Z,17.40
2023-11-30T06:29:45.031Z,16.17
2023-11-30T06:32:11.803Z,12.80
2023-11-30T06:34:39.774Z,16.35
2023-11-30T06:37:07.076Z,14.13
2023-11-30T06:39:34.001Z,17.88
2023-11-30T06:42:03.121Z,18.58
2023-11-30T06:44:29.991Z,17.17
2023-11-30T06:46:56.663Z,16.42
2023-11-30T06:49:23.274Z,13.68
2023-11-30T06:51:51.326Z,18.50
2023-11-30T06:54:18.186Z,20.17
2023-11-30T06:56:44.841Z,18.70
2023-11-30T06:59:11.468Z,16.42
2023-11-30T07:01:38.328Z,21.83
2023-11-30T07:04:05.060Z,20.10
2023-11-30T07:06:31.967Z,15.60
2023-11-30T07:08:58.818Z,16.85
2023-11-30T07:11:25.452Z,18.15
2023-11-30T07:13:52.353Z,17.42
2023-11-30T07:16:19.053Z,17.27
2023-11-30T07:18:45.698Z,21.38
2023-11-30T07:21:18.697Z,18.08
2023-11-30T07:23:45.628Z,21.35
2023-11-30T07:26:15.259Z,17.25
2023-11-30T07:28:42.797Z,22.85
2023-11-30T07:31:17.591Z,19.80
2023-11-30T07:33:44.177Z,24.13
2023-11-30T07:36:13.969Z,22.63
2023-11-30T07:38:41.498Z,27.63
2023-11-30T07:41:08.855Z,22.88
2023-11-30T07:43:35.603Z,26.05
2023-11-30T07:46:02.802Z,20.80
2023-11-30T07:48:30.103Z,19.58
2023-11-30T07:50:58.480Z,22.38
2023-11-30T07:53:25.354Z,24.95
2023-11-30T07:55:55.550Z,23.25
2023-11-30T07:58:25.529Z,19.02
2023-11-30T08:00:53.045Z,23.70
2023-11-30T08:03:19.883Z,26.35
2023-11-30T08:05:46.689Z,34.40
2023-11-30T08:08:13.864Z,28.65
2023-11-30T08:10:40.875Z,24.77
2023-11-30T08:13:07.655Z,25.63
2023-11-30T08:15:34.696Z,29.60
2023-11-30T08:18:02.258Z,43.17
2023-11-30T08:20:29.270Z,54.22
2023-11-30T08:22:56.359Z,53.03
2023-11-30T08:25:22.986Z,48.42
2023-11-30T08:27:54.084Z,51.08
2023-11-30T08:30:21.896Z,40.30
2023-11-30T08:32:49.025Z,31.42
2023-11-30T08:35:16.011Z,28.70
2023-11-30T08:37:43.001Z,40.53
2023-11-30T08:40:11.918Z,37.55
2023-11-30T08:42:39.806Z,33.20
2023-11-30T08:45:07.116Z,29.98
2023-11-30T08:47:33.793Z,25.23
2023-11-30T08:50:02.736Z,21.58
2023-11-30T08:52:29.537Z,19.25
2023-11-30T08:54:56.140Z,23.95
2023-11-30T08:57:22.945Z,23.13
2023-11-30T08:59:50.610Z,18.52
2023-11-30T09:02:19.586Z,18.73
2023-11-30T09:04:49.109Z,19.73
2023-11-30T09:07:16.285Z,20.65
2023-11-30T09:09:46.738Z,20.85
2023-11-30T09:14:42.565Z,20.20
2023-11-30T09:17:11.885Z,21.85
2023-11-30T09:19:39.875Z,27.15
2023-11-30T09:22:08.087Z,24.63
2023-11-30T09:24:35.294Z,15.38
2023-11-30T09:27:03.028Z,21.55
2023-11-30T09:29:30.338Z,23.42
2023-11-30T09:31:57.732Z,20.17
2023-11-30T09:34:26.539Z,21.33
2023-11-30T09:36:53.169Z,24.20
2023-11-30T09:39:21.138Z,23.77
2023-11-30T09:41:47.986Z,33.05
2023-11-30T09:44:15.027Z,23.33
2023-11-30T09:46:42.193Z,15.65
2023-11-30T09:49:10.290Z,17.38
2023-11-30T09:51:51.271Z,24.00
2023-11-30T09:54:18.024Z,22.42
2023-11-30T09:56:46.014Z,26.02
2023-11-30T09:59:13.244Z,28.40
2023-11-30T10:01:42.736Z,19.65
2023-11-30T10:04:19.125Z,25.58
2023-11-30T10:06:49.432Z,22.23
2023-11-30T10:09:17.383Z,23.15
2023-11-30T10:11:45.210Z,24.17
2023-11-30T10:14:11.764Z,26.77
2023-11-30T10:16:38.759Z,23.88
2023-11-30T10:19:08.234Z,30.63
2023-11-30T10:21:35.379Z,27.65
2023-11-30T10:24:02.247Z,23.98
2023-11-30T10:26:30.295Z,26.20
2023-11-30T10:28:58.689Z,24.02
2023-11-30T10:31:25.408Z,28.10
2023-11-30T10:33:56.985Z,26.27
2023-11-30T10:36:28.898Z,23.60
2023-11-30T10:39:02.712Z,25.20
2023-11-30T10:41:43.830Z,24.42
2023-11-30T10:44:13.894Z,22.80
2023-11-30T10:46:41.721Z,23.95
2023-11-30T10:49:08.412Z,23.75
2023-11-30T10:51:36.694Z,26.00
2023-11-30T10:54:22.169Z,26.52
2023-11-30T10:56:49.209Z,23.67
2023-11-30T10:59:16.316Z,27.98
2023-11-30T11:01:49.814Z,22.90
2023-11-30T11:04:16.596Z,22.42
2023-11-30T11:06:43.896Z,25.83
2023-11-30T11:09:13.181Z,22.48
2023-11-30T11:11:41.401Z,24.85
2023-11-30T11:14:08.314Z,27.75
2023-11-30T11:16:42.794Z,22.35
2023-11-30T11:19:10.379Z,23.88
2023-11-30T11:21:40.466Z,17.52
2023-11-30T11:24:08.454Z,15.75
2023-11-30T11:26:48.988Z,15.02
2023-11-30T11:29:23.938Z,11.30
2023-11-30T11:31:55.500Z,13.73
2023-11-30T11:34:22.184Z,11.48
2023-11-30T11:36:49.695Z,15.25
2023-11-30T11:39:17.737Z,11.80
2023-11-30T11:41:47.482Z,11.73
2023-11-30T11:44:15.128Z,13.05
2023-11-30T11:46:42.063Z,10.13
2023-11-30T11:49:08.704Z,11.05
2023-11-30T11:51:46.182Z,9.88
2023-11-30T11:54:20.005Z,10.98
2023-11-30T11:56:48.341Z,11.73
2023-11-30T11:59:19.957Z,9.80
2023-11-30T12:01:49.442Z,10.35
2023-11-30T12:04:30.353Z,8.90
2023-11-30T12:06:58.240Z,11.23
2023-11-30T12:09:25.523Z,10.35
2023-11-30T12:11:53.066Z,10.35
2023-11-30T12:14:21.590Z,11.00
2023-11-30T12:16:48.145Z,10.93
2023-11-30T12:19:19.805Z,12.02
2023-11-30T12:21:47.130Z,13.10
2023-11-30T12:24:16.060Z,13.45
2023-11-30T12:26:44.175Z,18.60
2023-11-30T12:29:11.315Z,12.25
2023-11-30T12:31:38.513Z,11.55
2023-11-30T12:34:05.591Z,13.70
2023-11-30T12:36:32.195Z,10.10
2023-11-30T12:38:58.820Z,11.43
2023-11-30T12:41:25.378Z,12.68
2023-11-30T12:43:52.246Z,13.05
2023-11-30T12:46:19.066Z,13.70
2023-11-30T12:48:46.010Z,12.32
2023-11-30T12:51:13.852Z,11.32
2023-11-30T12:53:41.508Z,15.18
2023-11-30T12:56:08.442Z,12.35
2023-11-30T12:58:35.048Z,14.50
2023-11-30T13:01:01.548Z,13.27
2023-11-30T13:03:28.291Z,15.57
2023-11-30T13:05:55.153Z,15.15
2023-11-30T13:08:23.129Z,18.10
2023-11-30T13:10:49.679Z,12.70
2023-11-30T13:13:16.442Z,11.40
2023-11-30T13:15:44.533Z,12.48
2023-11-30T13:18:11.506Z,11.68
2023-11-30T13:20:43.574Z,10.88
2023-11-30T13:25:36.919Z,12.45
2023-11-30T13:28:03.607Z,12.13
2023-11-30T13:30:30.302Z,12.20
2023-11-30T13:32:57.478Z,13.98
2023-11-30T13:35:25.180Z,11.48
2023-11-30T13:37:52.096Z,13.77
2023-11-30T13:40:20.648Z,12.43
2023-11-30T13:42:47.385Z,12.98
2023-11-30T13:45:14.225Z,14.15
2023-11-30T13:47:48.749Z,13.77
2023-11-30T13:50:26.391Z,13.23
2023-11-30T13:52:57.890Z,14.55
2023-11-30T13:55:24.480Z,12.32
2023-11-30T13:57:51.299Z,14.30
2023-11-30T14:00:17.955Z,11.68
2023-11-30T14:02:45.857Z,9.40
2023-11-30T14:05:12.988Z,15.27
2023-11-30T14:07:39.873Z,13.90
2023-11-30T14:10:11.488Z,13.85
2023-11-30T14:12:39.891Z,13.40
2023-11-30T14:15:12.059Z,16.13
2023-11-30T14:17:40.302Z,16.70
2023-11-30T14:20:09.587Z,16.23
2023-11-30T14:22:36.883Z,15.32
2023-11-30T14:25:13.587Z,15.23
2023-11-30T14:27:40.538Z,19.73
2023-11-30T14:30:10.900Z,19.00
2023-11-30T14:32:40.219Z,20.13
2023-11-30T14:35:08.858Z,25.23
2023-11-30T14:37:35.481Z,21.58
2023-11-30T14:40:05.076Z,22.88
2023-11-30T14:42:31.798Z,21.35
2023-11-30T14:44:58.657Z,21.70
2023-11-30T14:47:27.227Z,19.75
2023-11-30T14:49:55.077Z,23.02
2023-11-30T14:52:21.930Z,23.50
2023-11-30T14:54:53.462Z,20.27
2023-11-30T14:57:20.885Z,24.98
2023-11-30T14:59:51.170Z,22.25
2023-11-30T15:02:18.534Z,24.20
2023-11-30T15:04:45.146Z,25.15
2023-11-30T15:07:11.973Z,26.42
2023-11-30T15:09:38.725Z,23.00
2023-11-30T15:12:07.573Z,26.83
2023-11-30T15:14:34.269Z,28.38
2023-11-30T15:17:00.960Z,25.05
2023-11-30T15:19:27.841Z,30.08
2023-11-30T15:21:55.553Z,26.38
2023-11-30T15:24:22.214Z,30.60
2023-11-30T15:26:49.120Z,31.08
2023-11-30T15:29:15.805Z,29.50
2023-11-30T15:31:43.131Z,29.83
2023-11-30T15:34:11.111Z,32.78
2023-11-30T15:36:41.173Z,35.67
2023-11-30T15:39:14.541Z,27.85
2023-11-30T15:41:43.565Z,35.00
2023-11-30T15:44:10.730Z,31.88
2023-11-30T15:46:38.042Z,31.45
2023-11-30T15:49:04.641Z,25.27
2023-11-30T15:51:33.171Z,26.08
2023-11-30T15:54:00.013Z,25.15
2023-11-30T15:56:26.584Z,31.90
2023-11-30T15:58:53.304Z,27.15
2023-11-30T16:01:19.989Z,28.85
2023-11-30T16:03:46.898Z,31.30
2023-11-30T16:06:13.462Z,26.90
2023-11-30T16:08:40.002Z,28.77
2023-11-30T16:11:13.111Z,30.20
2023-11-30T16:13:40.810Z,33.42
2023-11-30T16:16:08.854Z,32.05
2023-11-30T16:18:36.798Z,28.52
2023-11-30T16:21:03.833Z,35.53
2023-11-30T16:23:30.539Z,29.45
2023-11-30T16:25:59.262Z,29.75
2023-11-30T16:28:25.824Z,22.58
2023-11-30T16:30:52.689Z,28.73
2023-11-30T16:33:19.546Z,29.63
2023-11-30T16:35:46.134Z,24.75
2023-11-30T16:38:12.818Z,28.48
2023-11-30T16:40:39.407Z,31.17
2023-11-30T16:43:06.253Z,28.45
2023-11-30T16:45:32.845Z,31.25
2023-11-30T16:47:59.792Z,30.27
2023-11-30T16:50:27.262Z,27.67
2023-11-30T16:52:53.957Z,26.85
2023-11-30T16:55:20.876Z,24.00
2023-11-30T16:57:47.635Z,29.83
2023-11-30T17:00:14.918Z,31.55
2023-11-30T17:02:41.606Z,26.17
2023-11-30T17:05:08.741Z,30.23
2023-11-30T17:07:35.601Z,28.40
2023-11-30T17:10:03.734Z,26.85
2023-11-30T17:12:30.496Z,26.90
2023-11-30T17:14:57.125Z,27.08
2023-11-30T17:17:23.945Z,25.73
2023-11-30T17:19:50.779Z,26.10
2023-11-30T17:22:21.131Z,28.50
2023-11-30T17:24:47.748Z,27.83
2023-11-30T17:27:14.696Z,28.67
2023-11-30T17:29:43.087Z,25.42
2023-11-30T17:32:10.668Z,29.60
2023-11-30T17:34:37.561Z,27.38
2023-11-30T17:37:04.717Z,24.23
2023-11-30T17:39:31.352Z,25.85
2023-11-30T17:41:57.989Z,27.52
2023-11-30T17:44:24.643Z,27.73
2023-11-30T17:46:53.368Z,28.50
2023-11-30T17:49:24.457Z,29.33
2023-11-30T17:51:52.707Z,29.02
2023-11-30T17:54:19.888Z,27.23
2023-11-30T17:56:47.866Z,23.23
2023-11-30T17:59:17.092Z,24.63
2023-11-30T18:01:43.732Z,24.65
2023-11-30T18:04:10.666Z,25.98
2023-11-30T18:06:37.794Z,27.33
2023-11-30T18:09:04.699Z,28.88
2023-11-30T18:11:31.355Z,22.73
2023-11-30T18:13:58.981Z,29.45
2023-11-30T18:16:25.628Z,30.40
2023-11-30T18:18:52.640Z,27.45
2023-11-30T18:21:19.600Z,27.15
2023-11-30T18:23:46.605Z,27.10
2023-11-30T18:26:13.174Z,29.17
2023-11-30T18:28:42.566Z,25.98
2023-11-30T18:31:16.713Z,32.70
2023-11-30T18:33:49.785Z,29.70
2023-11-30T18:36:16.533Z,31.60
2023-11-30T18:38:50.247Z,26.42
2023-11-30T18:41:18.981Z,28.63
2023-11-30T18:43:45.535Z,31.25
2023-11-30T18:46:14.058Z,28.67
2023-11-30T18:48:41.020Z,29.20
2023-11-30T18:51:08.606Z,26.55
2023-11-30T18:53:35.219Z,30.08
2023-11-30T18:56:03.956Z,31.42
2023-11-30T18:58:30.762Z,35.67
2023-11-30T19:00:57.689Z,29.67
2023-11-30T19:03:24.428Z,39.45
2023-11-30T19:05:51.159Z,35.55
2023-11-30T19:08:18.385Z,43.47
2023-11-30T19:10:50.379Z,53.22
2023-11-30T19:13:17.065Z,58.78
2023-11-30T19:15:43.772Z,62.45
2023-11-30T19:18:11.982Z,68.60
2023-11-30T19:20:57.516Z,77.32
2023-11-30T19:23:27.900Z,47.97
2023-11-30T19:25:54.565Z,42.20
2023-11-30T19:28:22.102Z,51.78
2023-11-30T19:31:02.692Z,43.78
2023-11-30T19:33:32.131Z,41.20
2023-11-30T19:36:00.915Z,37.25
2023-11-30T19:38:28.928Z,37.30
2023-11-30T19:40:59.091Z,35.80
2023-11-30T19:43:29.005Z,33.55
2023-11-30T19:45:56.841Z,30.25
2023-11-30T19:48:29.175Z,29.95
2023-11-30T19:50:56.985Z,30.73
2023-11-30T19:53:24.033Z,30.42
2023-11-30T19:55:50.855Z,28.60
2023-11-30T19:58:20.007Z,32.38
2023-11-30T20:00:49.375Z,29.60
2023-11-30T20:03:16.168Z,29.52
2023-11-30T20:05:46.364Z,29.80
2023-11-30T20:10:57.131Z,28.23
2023-11-30T20:13:30.345Z,27.23
2023-11-30T20:15:57.370Z,29.13
2023-11-30T20:18:28.311Z,30.70
2023-11-30T20:20:57.778Z,33.28
2023-11-30T20:23:24.545Z,32.15
2023-11-30T20:25:51.705Z,24.23
2023-11-30T20:28:18.309Z,30.70
2023-11-30T20:30:45.275Z,25.35
2023-11-30T20:33:11.945Z,31.02
2023-11-30T20:35:40.739Z,27.15
2023-11-30T20:38:11.562Z,33.25
2023-11-30T20:40:38.448Z,31.35
2023-11-30T20:43:05.156Z,33.22
2023-11-30T20:45:31.712Z,28.10
2023-11-30T20:47:58.413Z,28.80
2023-11-30T20:50:26.125Z,28.35
2023-11-30T20:52:52.658Z,30.30
2023-11-30T20:55:21.182Z,29.85
2023-11-30T20:57:48.195Z,30.33
2023-11-30T21:00:18.184Z,35.85
2023-11-30T21:02:44.703Z,31.17
2023-11-30T21:05:11.624Z,32.53
2023-11-30T21:07:38.219Z,29.88
2023-11-30T21:10:04.971Z,31.58
2023-11-30T21:12:31.742Z,34.17
2023-11-30T21:14:58.336Z,30.95
2023-11-30T21:17:24.957Z,35.67
2023-11-30T21:19:51.557Z,32.40
2023-11-30T21:22:19.734Z,26.58
2023-11-30T21:24:51.050Z,26.55
2023-11-30T21:27:17.599Z,29.35
2023-11-30T21:29:46.424Z,30.30
2023-11-30T21:32:13.238Z,29.10
2023-11-30T21:34:41.050Z,31.13
2023-11-30T21:37:07.955Z,25.13
2023-11-30T21:39:37.492Z,32.83
2023-11-30T21:42:04.562Z,28.50
2023-11-30T21:44:31.434Z,28.05
2023-11-30T21:46:58.345Z,38.22
2023-11-30T21:49:25.024Z,37.15
2023-11-30T21:51:54.729Z,26.83
2023-11-30T21:54:21.435Z,26.20
2023-11-30T21:56:48.026Z,33.67
2023-11-30T21:59:14.783Z,32.17
2023-11-30T22:01:41.585Z,29.27
2023-11-30T22:04:08.338Z,26.65
2023-11-30T22:06:35.074Z,29.30
2023-11-30T22:09:03.074Z,25.58
2023-11-30T22:11:29.721Z,32.50
2023-11-30T22:13:56.337Z,29.15
2023-11-30T22:16:28.935Z,30.35
2023-11-30T22:19:02.855Z,29.10
2023-11-30T22:21:31.021Z,24.02
2023-11-30T22:23:57.679Z,32.90
2023-11-30T22:26:28.024Z,29.58
2023-11-30T22:28:55.941Z,33.40
2023-11-30T22:31:25.915Z,31.70
2023-11-30T22:33:55.116Z,27.30
2023-11-30T22:36:21.765Z,32.00
2023-11-30T22:38:49.779Z,31.75
2023-11-30T22:41:16.529Z,27.50
2023-11-30T22:43:43.176Z,30.05
2023-11-30T22:46:18.027Z,27.58
2023-11-30T22:48:45.582Z,29.60
2023-11-30T22:51:12.490Z,26.48
2023-11-30T22:53:39.022Z,27.52
2023-11-30T22:56:05.920Z,28.42
2023-11-30T22:58:32.581Z,28.40
2023-11-30T23:00:59.365Z,28.38
2023-11-30T23:03:26.378Z,27.80
2023-11-30T23:05:53.348Z,25.67
2023-11-30T23:08:20.381Z,28.58
2023-11-30T23:10:47.206Z,26.38
2023-11-30T23:13:13.820Z,27.55
2023-11-30T23:15:40.304Z,26.48
2023-11-30T23:18:07.199Z,27.08
2023-11-30T23:20:34.048Z,26.98
2023-11-30T23:23:00.619Z,27.17
2023-11-30T23:25:27.678Z,27.00
2023-11-30T23:27:54.768Z,26.80
2023-11-30T23:30:23.527Z,27.08
2023-11-30T23:32:53.083Z,25.35
2023-11-30T23:35:21.265Z,29.58
2023-11-30T23:37:48.374Z,27.05
2023-11-30T23:40:15.651Z,27.88
2023-11-30T23:42:42.339Z,31.55
2023-11-30T23:45:09.382Z,29.10
2023-11-30T23:47:38.645Z,29.38
2023-11-30T23:50:06.190Z,23.80
2023-11-30T23:52:32.794Z,25.25
2023-11-30T23:54:59.634Z,28.48
2023-11-30T23:57:26.252Z,27.90
2023-11-30T23:59:53.131Z,23.42
